createdAt,value
2022-12-06T00:00:10.255Z,100899.03
2022-12-06T00:02:37.924Z,100896.78
2022-12-06T00:05:06.202Z,100899.53
2022-12-06T00:07:33.967Z,100900.50
2022-12-06T00:10:01.910Z,100898.53
2022-12-06T00:12:29.662Z,100901.19
2022-12-06T00:14:57.392Z,100903.81
2022-12-06T00:17:26.426Z,100903.38
2022-12-06T00:19:54.040Z,100904.06
2022-12-06T00:22:21.894Z,100896.84
2022-12-06T00:24:49.561Z,100903.09
2022-12-06T00:27:17.206Z,100892.78
2022-12-06T00:29:46.033Z,100887.84
2022-12-06T00:32:19.245Z,100891.84
2022-12-06T00:34:51.214Z,100891.84
2022-12-06T00:37:20.226Z,100889.53
2022-12-06T00:39:47.906Z,100884.16
2022-12-06T00:42:15.588Z,100880.53
2022-12-06T00:44:46.122Z,100875.03
2022-12-06T00:47:13.947Z,100870.38
2022-12-06T00:49:44.580Z,100873.25
2022-12-06T00:52:13.600Z,100872.50
2022-12-06T00:54:42.170Z,100867.34
2022-12-06T00:57:10.182Z,100869.88
2022-12-06T00:59:37.817Z,100874.66
2022-12-06T01:02:07.301Z,100869.72
2022-12-06T01:04:34.990Z,100875.00
2022-12-06T01:07:02.698Z,100871.66
2022-12-06T01:09:31.809Z,100875.50
2022-12-06T01:11:59.863Z,100875.03
2022-12-06T01:14:28.987Z,100881.00
2022-12-06T01:16:56.752Z,100876.56
2022-12-06T01:19:24.581Z,100879.38
2022-12-06T01:21:52.236Z,100877.69
2022-12-06T01:24:19.949Z,100872.13
2022-12-06T01:26:48.903Z,100876.72
2022-12-06T01:29:16.942Z,100876.00
2022-12-06T01:31:46.046Z,100883.41
2022-12-06T01:34:16.721Z,100888.69
2022-12-06T01:36:45.260Z,100884.88
2022-12-06T01:39:14.684Z,100885.84
2022-12-06T01:41:42.863Z,100884.66
2022-12-06T01:44:44.040Z,100888.59
2022-12-06T01:47:14.741Z,100884.03
2022-12-06T01:49:48.071Z,100887.97
2022-12-06T01:52:16.217Z,100884.66
2022-12-06T01:54:43.989Z,100879.94
2022-12-06T01:57:14.833Z,100873.47
2022-12-06T01:59:44.812Z,100884.88
2022-12-06T02:02:13.277Z,100879.38
2022-12-06T02:04:41.501Z,100887.06
2022-12-06T02:07:09.723Z,100877.78
2022-12-06T02:09:39.044Z,100871.22
2022-12-06T02:12:13.104Z,100876.50
2022-12-06T02:14:42.285Z,100867.56
2022-12-06T02:17:32.877Z,100869.63
2022-12-06T02:20:08.513Z,100867.22
2022-12-06T02:22:53.466Z,100856.31
2022-12-06T02:25:43.637Z,100854.88
2022-12-06T02:28:34.681Z,100856.81
2022-12-06T02:31:12.185Z,100858.47
2022-12-06T02:33:45.526Z,100857.75
2022-12-06T02:36:22.182Z,100861.59
2022-12-06T02:38:53.069Z,100860.03
2022-12-06T02:41:27.609Z,100855.09
2022-12-06T02:43:59.775Z,100852.97
2022-12-06T02:46:32.858Z,100854.03
2022-12-06T02:49:03.500Z,100852.72
2022-12-06T02:51:34.136Z,100852.72
2022-12-06T02:54:04.057Z,100847.09
2022-12-06T02:56:33.916Z,100851.28
2022-12-06T02:59:01.676Z,100851.66
2022-12-06T03:01:34.701Z,100845.28
2022-12-06T03:04:13.946Z,100843.13
2022-12-06T03:06:55.340Z,100848.41
2022-12-06T03:09:38.587Z,100840.00
2022-12-06T03:12:12.577Z,100841.94
2022-12-06T03:14:46.623Z,100840.47
2022-12-06T03:17:24.104Z,100841.81
2022-12-06T03:19:58.710Z,100848.88
2022-12-06T03:22:34.443Z,100846.47
2022-12-06T03:25:08.369Z,100849.38
2022-12-06T03:27:37.305Z,100848.16
2022-12-06T03:30:13.016Z,100842.03
2022-12-06T03:32:47.694Z,100840.72
2022-12-06T03:35:20.415Z,100840.97
2022-12-06T03:37:53.808Z,100841.69
2022-12-06T03:40:26.277Z,100837.84
2022-12-06T03:42:54.511Z,100839.28
2022-12-06T03:45:26.521Z,100834.97
2022-12-06T03:48:03.654Z,100836.75
2022-12-06T03:50:35.068Z,100831.72
2022-12-06T03:53:03.353Z,100834.13
2022-12-06T03:55:31.199Z,100824.41
2022-12-06T03:57:58.832Z,100824.41
2022-12-06T04:00:26.574Z,100826.31
2022-12-06T04:02:55.542Z,100819.00
2022-12-06T04:05:23.210Z,100819.63
2022-12-06T04:07:51.110Z,100825.47
2022-12-06T04:10:18.820Z,100825.75
2022-12-06T04:13:06.188Z,100824.53
2022-12-06T04:15:36.016Z,100827.53
2022-12-06T04:18:13.959Z,100819.72
2022-12-06T04:21:04.395Z,100813.38
2022-12-06T04:23:34.712Z,100818.28
2022-12-06T04:26:05.277Z,100815.66
2022-12-06T04:28:52.819Z,100820.69
2022-12-06T04:31:38.339Z,100809.53
2022-12-06T04:34:25.512Z,100805.94
2022-12-06T04:37:10.890Z,100802.94
2022-12-06T04:39:38.552Z,100807.88
2022-12-06T04:42:24.427Z,100802.72
2022-12-06T04:44:52.199Z,100810.50
2022-12-06T04:47:20.260Z,100806.66
2022-12-06T04:49:49.343Z,100802.31
2022-12-06T04:52:17.665Z,100800.66
2022-12-06T04:54:45.485Z,100801.59
2022-12-06T04:57:14.809Z,100802.22
2022-12-06T04:59:44.091Z,100797.28
2022-12-06T05:02:14.403Z,100796.78
2022-12-06T05:04:44.876Z,100795.13
2022-12-06T05:07:14.290Z,100791.91
2022-12-06T05:09:41.972Z,100791.44
2022-12-06T05:12:09.885Z,100802.44
2022-12-06T05:14:37.649Z,100794.41
2022-12-06T05:17:05.368Z,100798.63
2022-12-06T05:19:33.095Z,100792.03
2022-12-06T05:22:00.867Z,100798.59
2022-12-06T05:24:30.161Z,100794.53
2022-12-06T05:26:57.875Z,100789.38
2022-12-06T05:29:25.614Z,100796.56
2022-12-06T05:31:53.371Z,100798.50
2022-12-06T05:34:21.083Z,100798.50
2022-12-06T05:36:48.912Z,100796.81
2022-12-06T05:39:17.745Z,100796.56
2022-12-06T05:41:46.873Z,100801.84
2022-12-06T05:44:14.624Z,100800.91
2022-12-06T05:46:42.275Z,100801.84
2022-12-06T05:49:09.946Z,100805.44
2022-12-06T05:51:37.607Z,100795.75
2022-12-06T05:54:06.620Z,100807.75
2022-12-06T05:56:34.826Z,100813.13
2022-12-06T05:59:04.302Z,100812.53
2022-12-06T06:01:32.273Z,100816.97
2022-12-06T06:03:59.912Z,100813.63
2022-12-06T06:06:27.543Z,100810.38
2022-12-06T06:08:55.463Z,100816.00
2022-12-06T06:11:23.192Z,100821.53
2022-12-06T06:13:50.911Z,100822.97
2022-12-06T06:16:19.971Z,100829.69
2022-12-06T06:18:47.757Z,100824.16
2022-12-06T06:21:15.874Z,100827.88
2022-12-06T06:23:43.624Z,100823.69
2022-12-06T06:26:12.811Z,100829.09
2022-12-06T06:28:40.677Z,100827.75
2022-12-06T06:31:09.175Z,100829.69
2022-12-06T06:33:38.243Z,100826.09
2022-12-06T06:36:09.247Z,100822.50
2022-12-06T06:38:36.957Z,100826.09
2022-12-06T06:41:05.291Z,100818.63
2022-12-06T06:43:33.504Z,100817.91
2022-12-06T06:46:02.723Z,100824.63
2022-12-06T06:48:31.919Z,100821.66
2022-12-06T06:51:04.547Z,100820.06
2022-12-06T06:53:32.690Z,100820.56
2022-12-06T06:56:00.836Z,100820.78
2022-12-06T06:58:28.475Z,100821.75
2022-12-06T07:00:58.255Z,100828.97
2022-12-06T07:03:26.930Z,100825.63
2022-12-06T07:05:56.057Z,100827.53
2022-12-06T07:08:25.757Z,100817.56
2022-12-06T07:10:54.238Z,100820.22
2022-12-06T07:13:24.527Z,100819.00
2022-12-06T07:15:53.193Z,100821.03
2022-12-06T07:18:21.905Z,100822.94
2022-12-06T07:20:50.206Z,100821.75
2022-12-06T07:23:17.833Z,100821.88
2022-12-06T07:25:49.518Z,100822.72
2022-12-06T07:28:17.386Z,100833.16
2022-12-06T07:30:45.180Z,100829.69
2022-12-06T07:33:12.897Z,100831.69
2022-12-06T07:36:10.926Z,100831.00
2022-12-06T07:38:28.285Z,100827.88
2022-12-06T07:41:04.783Z,100832.19
2022-12-06T07:43:50.464Z,100837.25
2022-12-06T07:46:18.316Z,100835.44
2022-12-06T07:48:45.982Z,100834.13
2022-12-06T07:51:13.715Z,100831.59
2022-12-06T07:53:41.436Z,100831.59
2022-12-06T07:56:10.833Z,100831.72
2022-12-06T07:58:38.452Z,100832.19
2022-12-06T08:01:06.580Z,100834.00
2022-12-06T08:03:34.286Z,100831.25
2022-12-06T08:06:01.927Z,100830.63
2022-12-06T08:08:29.662Z,100837.47
2022-12-06T08:10:59.865Z,100839.00
2022-12-06T08:13:29.020Z,100835.66
2022-12-06T08:15:57.051Z,100834.25
2022-12-06T08:18:25.615Z,100833.03
2022-12-06T08:20:53.772Z,100832.69
2022-12-06T08:23:21.460Z,100834.72
2022-12-06T08:25:59.165Z,100840.47
2022-12-06T08:28:30.017Z,100839.50
2022-12-06T08:31:03.074Z,100826.91
2022-12-06T08:33:33.642Z,100822.59
2022-12-06T08:36:01.393Z,100833.28
2022-12-06T08:38:29.789Z,100833.06
2022-12-06T08:40:59.495Z,100833.75
2022-12-06T08:43:28.658Z,100834.84
2022-12-06T08:45:56.381Z,100838.06
2022-12-06T08:48:24.129Z,100827.78
2022-12-06T08:50:51.870Z,100832.94
2022-12-06T08:53:19.561Z,100830.75
2022-12-06T08:56:02.038Z,100829.56
2022-12-06T08:58:31.908Z,100827.63
2022-12-06T09:00:59.731Z,100829.06
2022-12-06T09:03:27.593Z,100834.47
2022-12-06T09:05:57.787Z,100833.13
2022-12-06T09:08:26.693Z,100842.28
2022-12-06T09:10:54.525Z,100842.00
2022-12-06T09:13:23.531Z,100833.97
2022-12-06T09:15:54.864Z,100826.31
2022-12-06T09:18:22.852Z,100829.31
2022-12-06T09:20:50.608Z,100837.47
2022-12-06T09:23:18.327Z,100840.72
2022-12-06T09:25:46.013Z,100837.56
2022-12-06T09:28:14.499Z,100841.16
2022-12-06T09:30:42.292Z,100835.06
2022-12-06T09:33:11.383Z,100848.03
2022-12-06T09:35:39.159Z,100847.66
2022-12-06T09:38:07.292Z,100843.81
2022-12-06T09:40:43.181Z,100847.75
2022-12-06T09:43:25.156Z,100854.72
2022-12-06T09:46:07.788Z,100856.75
2022-12-06T09:48:56.908Z,100852.28
2022-12-06T09:51:49.831Z,100853.97
2022-12-06T09:54:33.778Z,100853.63
2022-12-06T09:57:08.378Z,100854.91
2022-12-06T09:59:45.631Z,100846.16
2022-12-06T10:02:38.277Z,100857.81
2022-12-06T10:05:29.866Z,100851.56
2022-12-06T10:08:08.779Z,100858.16
2022-12-06T10:10:50.370Z,100848.03
2022-12-06T10:13:25.601Z,100849.94
2022-12-06T10:16:04.702Z,100848.00
2022-12-06T10:18:51.023Z,100842.97
2022-12-06T10:21:29.304Z,100840.31
2022-12-06T10:24:07.915Z,100841.75
2022-12-06T10:26:45.833Z,100847.50
2022-12-06T10:29:27.348Z,100841.50
2022-12-06T10:31:59.542Z,100837.44
2022-12-06T10:34:49.451Z,100843.81
2022-12-06T10:37:32.939Z,100842.56
2022-12-06T10:40:07.611Z,100843.28
2022-12-06T10:42:41.541Z,100844.97
2022-12-06T10:45:37.855Z,100839.81
2022-12-06T10:48:15.759Z,100844.66
2022-12-06T10:50:47.994Z,100840.31
2022-12-06T10:53:21.555Z,100848.97
2022-12-06T10:55:52.966Z,100841.88
2022-12-06T10:58:31.902Z,100843.56
2022-12-06T11:01:02.099Z,100846.06
2022-12-06T11:03:34.587Z,100846.06
2022-12-06T11:06:10.656Z,100840.78
2022-12-06T11:08:44.953Z,100840.53
2022-12-06T11:11:16.722Z,100840.00
2022-12-06T11:13:48.920Z,100845.69
2022-12-06T11:16:21.624Z,100849.91
2022-12-06T11:18:50.807Z,100841.69
2022-12-06T11:21:28.139Z,100830.63
2022-12-06T11:24:03.287Z,100833.72
2022-12-06T11:26:37.443Z,100832.28
2022-12-06T11:29:11.188Z,100835.19
2022-12-06T11:31:44.284Z,100829.78
2022-12-06T11:34:18.105Z,100829.63
2022-12-06T11:36:48.141Z,100832.28
2022-12-06T11:39:17.976Z,100828.81
2022-12-06T11:41:50.485Z,100827.84
2022-12-06T11:44:21.916Z,100828.94
2022-12-06T11:46:58.552Z,100829.19
2022-12-06T11:49:29.827Z,100826.53
2022-12-06T11:52:00.723Z,100823.78
2022-12-06T11:54:34.995Z,100824.34
2022-12-06T11:57:17.917Z,100827.00
2022-12-06T12:00:10.047Z,100818.16
2022-12-06T12:02:37.939Z,100811.53
2022-12-06T12:05:11.249Z,100803.84
2022-12-06T12:07:43.153Z,100805.97
2022-12-06T12:10:34.862Z,100812.41
2022-12-06T12:13:38.956Z,100804.34
2022-12-06T12:16:15.699Z,100806.50
2022-12-06T12:18:51.486Z,100794.59
2022-12-06T12:21:30.990Z,100799.41
2022-12-06T12:23:58.845Z,100793.28
2022-12-06T12:26:36.949Z,100791.31
2022-12-06T12:29:14.661Z,100792.84
2022-12-06T12:31:52.754Z,100788.28
2022-12-06T12:34:22.266Z,100793.81
2022-12-06T12:36:51.495Z,100798.88
2022-12-06T12:39:31.688Z,100799.00
2022-12-06T12:42:01.608Z,100802.16
2022-12-06T12:44:40.220Z,100801.84
2022-12-06T12:47:18.704Z,100805.59
2022-12-06T12:50:02.141Z,100803.19
2022-12-06T12:52:32.484Z,100803.31
2022-12-06T12:55:02.104Z,100800.97
2022-12-06T12:57:31.453Z,100801.09
2022-12-06T13:00:00.400Z,100808.06
2022-12-06T13:02:30.554Z,100802.16
2022-12-06T13:05:31.228Z,100801.22
2022-12-06T13:07:54.179Z,100807.59
2022-12-06T13:10:28.106Z,100796.75
2022-12-06T13:13:00.265Z,100799.28
2022-12-06T13:15:35.108Z,100799.41
2022-12-06T13:18:08.152Z,100801.94
2022-12-06T13:20:36.639Z,100795.06
2022-12-06T13:23:10.686Z,100797.00
2022-12-06T13:25:38.393Z,100790.88
2022-12-06T13:28:13.746Z,100789.06
2022-12-06T13:30:43.018Z,100785.34
2022-12-06T13:33:21.142Z,100788.41
2022-12-06T13:35:56.023Z,100788.41
2022-12-06T13:38:29.573Z,100789.53
2022-12-06T13:40:58.570Z,100781.59
2022-12-06T13:44:00.325Z,100786.78
2022-12-06T13:46:34.768Z,100783.28
2022-12-06T13:49:25.234Z,100787.75
2022-12-06T13:51:56.149Z,100784.38
2022-12-06T13:54:33.451Z,100787.31
2022-12-06T13:57:04.884Z,100795.50
2022-12-06T13:59:41.489Z,100787.75
2022-12-06T14:02:47.839Z,100798.56
2022-12-06T14:08:19.744Z,100794.25
2022-12-06T14:10:47.806Z,100788.69
2022-12-06T14:13:20.607Z,100792.63
2022-12-06T14:15:52.423Z,100795.38
2022-12-06T14:18:26.858Z,100795.66
2022-12-06T14:20:57.085Z,100804.56
2022-12-06T14:23:31.177Z,100804.81
2022-12-06T14:26:16.755Z,100797.00
2022-12-06T14:28:44.875Z,100799.53
2022-12-06T14:31:24.111Z,100798.56
2022-12-06T14:33:52.756Z,100795.19
2022-12-06T14:36:24.005Z,100790.63
2022-12-06T14:38:54.937Z,100787.28
2022-12-06T14:41:40.528Z,100795.06
2022-12-06T14:44:18.804Z,100788.81
2022-12-06T14:46:49.593Z,100786.19
2022-12-06T14:49:38.058Z,100786.31
2022-12-06T14:52:19.162Z,100785.59
2022-12-06T14:54:47.152Z,100783.91
2022-12-06T14:57:23.459Z,100788.03
2022-12-06T15:00:25.998Z,100790.69
2022-12-06T15:03:22.816Z,100786.75
2022-12-06T15:05:57.317Z,100789.22
2022-12-06T15:08:35.387Z,100789.09
2022-12-06T15:11:05.965Z,100783.53
2022-12-06T15:13:33.382Z,100778.25
2022-12-06T15:16:13.786Z,100777.94
2022-12-06T15:18:45.773Z,100778.84
2022-12-06T15:21:14.704Z,100784.38
2022-12-06T15:23:49.287Z,100787.28
2022-12-06T15:26:18.132Z,100779.47
2022-12-06T15:28:46.351Z,100792.41
2022-12-06T15:31:19.476Z,100783.22
2022-12-06T15:33:49.220Z,100792.34
2022-12-06T15:36:19.053Z,100787.66
2022-12-06T15:38:46.909Z,100788.28
2022-12-06T15:41:18.610Z,100786.63
2022-12-06T15:43:46.594Z,100789.59
2022-12-06T15:46:19.435Z,100794.63
2022-12-06T15:48:48.758Z,100792.22
2022-12-06T15:51:20.957Z,100794.03
2022-12-06T15:53:49.932Z,100785.91
2022-12-06T15:56:20.003Z,100784.75
2022-12-06T15:58:47.997Z,100783.34
2022-12-06T16:01:18.084Z,100786.09
2022-12-06T16:03:46.050Z,100792.78
2022-12-06T16:06:16.341Z,100790.78
2022-12-06T16:08:44.722Z,100793.53
2022-12-06T16:11:13.871Z,100796.31
2022-12-06T16:13:41.551Z,100796.06
2022-12-06T16:16:10.667Z,100792.47
2022-12-06T16:18:38.548Z,100798.72
2022-12-06T16:21:07.569Z,100798.81
2022-12-06T16:26:44.826Z,100798.06
2022-12-06T16:29:14.968Z,100796.16
2022-12-06T16:31:42.719Z,100800.03
2022-12-06T16:34:11.111Z,100788.34
2022-12-06T16:36:54.822Z,100808.66
2022-12-06T16:39:23.883Z,100802.50
2022-12-06T16:41:51.845Z,100799.88
2022-12-06T16:44:19.647Z,100799.03
2022-12-06T16:46:47.473Z,100803.34
2022-12-06T16:52:06.603Z,100788.13
2022-12-06T16:54:35.783Z,100788.25
2022-12-06T16:57:03.439Z,100788.84
2022-12-06T16:59:31.186Z,100788.25
2022-12-06T17:01:59.383Z,100790.66
2022-12-06T17:04:27.093Z,100787.25
2022-12-06T17:06:54.985Z,100792.22
2022-12-06T17:09:22.672Z,100786.34
2022-12-06T17:12:03.628Z,100788.00
2022-12-06T17:14:31.326Z,100784.66
2022-12-06T17:17:03.692Z,100786.44
2022-12-06T17:19:32.206Z,100782.97
2022-12-06T17:22:01.990Z,100791.63
2022-12-06T17:24:29.847Z,100792.22
2022-12-06T17:26:59.094Z,100793.19
2022-12-06T17:29:27.036Z,100798.91
2022-12-06T17:31:54.830Z,100791.09
2022-12-06T17:34:22.996Z,100787.50
2022-12-06T17:36:50.802Z,100795.81
2022-12-06T17:39:20.811Z,100788.53
2022-12-06T17:42:05.929Z,100786.22
2022-12-06T17:44:35.281Z,100783.69
2022-12-06T17:47:03.557Z,100782.50
2022-12-06T17:49:31.343Z,100786.34
2022-12-06T17:51:59.084Z,100793.31
2022-12-06T17:54:26.791Z,100795.44
2022-12-06T17:56:56.204Z,100779.13
2022-12-06T17:59:25.667Z,100781.66
2022-12-06T18:02:15.047Z,100793.53
2022-12-06T18:04:44.336Z,100787.19
2022-12-06T18:07:12.169Z,100791.84
2022-12-06T18:09:39.880Z,100795.63
2022-12-06T18:12:12.759Z,100799.66
2022-12-06T18:14:40.530Z,100800.50
2022-12-06T18:17:09.924Z,100800.06
2022-12-06T18:19:37.650Z,100801.22
2022-12-06T18:22:06.189Z,100797.63
2022-12-06T18:24:36.023Z,100797.53
2022-12-06T18:27:04.638Z,100800.91
2022-12-06T18:29:32.443Z,100794.66
2022-12-06T18:32:00.358Z,100798.59
2022-12-06T18:34:29.640Z,100789.31
2022-12-06T18:36:57.314Z,100803.34
2022-12-06T18:39:25.334Z,100809.59
2022-12-06T18:41:53.819Z,100808.56
2022-12-06T18:44:22.333Z,100821.66
2022-12-06T18:46:50.174Z,100809.28
2022-12-06T18:49:18.271Z,100807.47
2022-12-06T18:51:47.812Z,100802.34
2022-12-06T18:54:15.640Z,100808.00
2022-12-06T18:56:43.611Z,100805.56
2022-12-06T18:59:12.653Z,100812.75
2022-12-06T19:01:42.004Z,100811.69
2022-12-06T19:04:14.886Z,100814.72
2022-12-06T19:06:44.022Z,100821.81
2022-12-06T19:09:15.296Z,100818.34
2022-12-06T19:11:45.648Z,100819.63
2022-12-06T19:14:14.111Z,100820.00
2022-12-06T19:16:43.714Z,100810.28
2022-12-06T19:19:16.567Z,100806.31
2022-12-06T19:21:45.830Z,100807.88
2022-12-06T19:24:16.985Z,100808.56
2022-12-06T19:26:44.837Z,100807.47
2022-12-06T19:29:12.766Z,100809.66
2022-12-06T19:31:40.446Z,100804.84
2022-12-06T19:34:08.202Z,100806.78
2022-12-06T19:36:35.932Z,100806.50
2022-12-06T19:39:06.798Z,100802.06
2022-12-06T19:41:57.191Z,100802.91
2022-12-06T19:44:24.522Z,100798.25
2022-12-06T19:46:52.510Z,100790.56
2022-12-06T19:49:23.018Z,100796.47
2022-12-06T19:51:51.635Z,100790.09
2022-12-06T19:54:22.136Z,100788.97
2022-12-06T19:56:53.179Z,100797.88
2022-12-06T19:59:20.867Z,100794.06
2022-12-06T20:01:50.245Z,100801.97
2022-12-06T20:04:20.506Z,100801.75
2022-12-06T20:06:48.598Z,100799.81
2022-12-06T20:09:17.884Z,100798.66
2022-12-06T20:12:02.045Z,100805.13
2022-12-06T20:14:34.896Z,100800.06
2022-12-06T20:17:02.870Z,100806.19
2022-12-06T20:19:30.564Z,100809.44
2022-12-06T20:21:58.237Z,100814.97
2022-12-06T20:24:26.011Z,100807.03
2022-12-06T20:26:55.746Z,100819.06
2022-12-06T20:29:23.850Z,100813.28
2022-12-06T20:31:53.078Z,100807.03
2022-12-06T20:34:20.791Z,100802.50
2022-12-06T20:36:48.506Z,100810.53
2022-12-06T20:39:21.540Z,100816.44
2022-12-06T20:41:49.967Z,100820.03
2022-12-06T20:44:18.679Z,100817.06
2022-12-06T20:46:47.147Z,100817.19
2022-12-06T20:49:16.620Z,100817.91
2022-12-06T20:51:49.576Z,100815.25
2022-12-06T20:54:20.440Z,100813.94
2022-12-06T20:56:51.514Z,100809.97
2022-12-06T20:59:19.634Z,100818.63
2022-12-06T21:01:47.572Z,100817.28
2022-12-06T21:04:17.436Z,100809.25
2022-12-06T21:06:45.207Z,100810.22
2022-12-06T21:09:13.212Z,100813.84
2022-12-06T21:11:40.961Z,100811.44
2022-12-06T21:14:08.722Z,100809.03
2022-12-06T21:16:38.179Z,100803.88
2022-12-06T21:19:07.757Z,100810.72
2022-12-06T21:21:38.637Z,100802.06
2022-12-06T21:24:08.456Z,100802.78
2022-12-06T21:26:36.600Z,100808.81
2022-12-06T21:29:05.282Z,100803.50
2022-12-06T21:31:37.095Z,100799.09
2022-12-06T21:34:05.374Z,100800.03
2022-12-06T21:36:33.780Z,100804.03
2022-12-06T21:39:02.846Z,100805.66
2022-12-06T21:41:30.584Z,100795.09
2022-12-06T21:43:58.388Z,100800.16
2022-12-06T21:46:27.181Z,100799.09
2022-12-06T21:48:56.297Z,100801.03
2022-12-06T21:51:25.465Z,100805.94
2022-12-06T21:53:53.942Z,100808.69
2022-12-06T21:56:25.018Z,100805.31
2022-12-06T21:58:53.216Z,100807.00
2022-12-06T22:01:23.952Z,100809.28
2022-12-06T22:03:53.132Z,100809.03
2022-12-06T22:06:21.390Z,100810.47
2022-12-06T22:08:50.367Z,100809.16
2022-12-06T22:11:20.119Z,100807.00
2022-12-06T22:13:49.740Z,100808.56
2022-12-06T22:16:19.371Z,100807.47
2022-12-06T22:18:47.233Z,100806.16
2022-12-06T22:21:19.120Z,100808.81
2022-12-06T22:23:47.798Z,100800.41
2022-12-06T22:26:17.121Z,100806.38
2022-12-06T22:28:45.298Z,100799.66
2022-12-06T22:31:16.694Z,100804.72
2022-12-06T22:33:45.306Z,100800.16
2022-12-06T22:36:14.184Z,100809.25
2022-12-06T22:38:42.021Z,100798.44
2022-12-06T22:41:11.585Z,100805.66
2022-12-06T22:43:41.847Z,100800.53
2022-12-06T22:46:11.528Z,100803.53
2022-12-06T22:48:41.229Z,100801.13
2022-12-06T22:51:11.079Z,100799.47
2022-12-06T22:53:39.153Z,100803.78
2022-12-06T22:56:07.369Z,100791.78
2022-12-06T22:58:35.095Z,100794.19
2022-12-06T23:01:15.990Z,100796.31
2022-12-06T23:03:46.684Z,100801.00
2022-12-06T23:06:15.371Z,100790.69
2022-12-06T23:08:43.806Z,100800.88
2022-12-06T23:11:13.097Z,100794.88
2022-12-06T23:13:41.496Z,100799.31
2022-12-06T23:16:12.804Z,100791.31
2022-12-06T23:18:40.699Z,100781.94
2022-12-06T23:21:13.539Z,100788.19
2022-12-06T23:23:42.889Z,100794.16
2022-12-06T23:26:13.874Z,100784.59
2022-12-06T23:28:42.050Z,100794.66
2022-12-06T23:31:13.352Z,100796.72
2022-12-06T23:33:41.733Z,100796.09
2022-12-06T23:36:13.477Z,100795.03
2022-12-06T23:38:41.711Z,100797.06
2022-12-06T23:41:11.961Z,100793.94
2022-12-06T23:43:40.481Z,100788.78
2022-12-06T23:46:10.136Z,100785.53
2022-12-06T23:48:38.244Z,100789.13
2022-12-06T23:51:08.555Z,100788.41
2022-12-06T23:53:38.305Z,100790.09
2022-12-06T23:56:08.751Z,100786.16
2022-12-06T23:58:37.508Z,100796.81
